Wetterdaten: aktuell Freitag, 21.02.2020 21:30
Datum Zeit Temp. A. Feuchte A. Luftdruck Regen Wind Richtung Richtung Taupunkt Windchill Windben Empfang
21.02.2020 21:30 8,4 C 81 % 1019,8 hPa 0,0 l/m 20,0 km/h (4 Bft) SW 228 5,3 C 5,4 C 38,9 km/h (6 Bft) 100 %
21.02.2020 21:20 8,3 C 82 % 1019,9 hPa 0,0 l/m 20,5 km/h (4 Bft) SW 214 5,4 C 5,2 C 38,9 km/h (6 Bft) 98 %
21.02.2020 21:10 8,2 C 83 % 1019,9 hPa 0,0 l/m 19,4 km/h (3 Bft) S-SW 211 5,5 C 5,2 C 42,6 km/h (6 Bft) 100 %
21.02.2020 21:00 8,2 C 83 % 1019,9 hPa 0,0 l/m 20,2 km/h (4 Bft) W-SW 246 5,5 C 5,1 C 40,7 km/h (6 Bft) 100 %
21.02.2020 20:50 8,2 C 83 % 1019,9 hPa 0,0 l/m 18,2 km/h (3 Bft) S-SW 212 5,5 C 5,3 C 29,6 km/h (5 Bft) 98 %
21.02.2020 20:40 8,2 C 83 % 1019,9 hPa 0,0 l/m 23,7 km/h (4 Bft) S-SW 208 5,5 C 4,7 C 38,9 km/h (6 Bft) 100 %
21.02.2020 20:30 8,1 C 84 % 1020,0 hPa 0,0 l/m 21,8 km/h (4 Bft) W-SW 238 5,6 C 4,8 C 38,9 km/h (6 Bft) 99 %
21.02.2020 20:20 7,9 C 84 % 1020,0 hPa 0,0 l/m 20,1 km/h (4 Bft) SW 231 5,4 C 4,7 C 35,2 km/h (5 Bft) 99 %
21.02.2020 20:10 7,9 C 85 % 1019,9 hPa 0,0 l/m 17,5 km/h (3 Bft) S-SW 208 5,5 C 5,0 C 33,3 km/h (5 Bft) 98 %
21.02.2020 20:00 7,9 C 84 % 1020,2 hPa 0,0 l/m 19,7 km/h (3 Bft) W 273 5,4 C 4,8 C 40,7 km/h (6 Bft) 99 %
21.02.2020 19:50 7,9 C 84 % 1020,3 hPa 0,0 l/m 17,0 km/h (3 Bft) S-SW 202 5,4 C 5,1 C 38,9 km/h (6 Bft) 99 %
21.02.2020 19:40 7,9 C 84 % 1020,5 hPa 0,0 l/m 20,1 km/h (4 Bft) S 188 5,4 C 4,7 C 44,4 km/h (6 Bft) 99 %
21.02.2020 19:30 7,9 C 84 % 1020,5 hPa 0,0 l/m 18,5 km/h (3 Bft) SW 234 5,4 C 4,9 C 40,7 km/h (6 Bft) 99 %
21.02.2020 19:20 8,0 C 83 % 1020,5 hPa 0,0 l/m 12,6 km/h (3 Bft) SW 227 5,3 C 5,8 C 18,5 km/h (3 Bft) 100 %
21.02.2020 19:10 8,1 C 82 % 1020,6 hPa 0,0 l/m 20,4 km/h (4 Bft) SW 225 5,2 C 4,9 C 44,4 km/h (6 Bft) 100 %
21.02.2020 19:00 8,1 C 81 % 1020,6 hPa 0,0 l/m 18,5 km/h (3 Bft) SW 225 5,0 C 5,1 C 33,3 km/h (5 Bft) 100 %
21.02.2020 18:50 8,2 C 80 % 1020,6 hPa 0,0 l/m 20,4 km/h (4 Bft) SW 225 5,0 C 5,1 C 35,2 km/h (5 Bft) 100 %
21.02.2020 18:40 8,2 C 79 % 1020,7 hPa 0,0 l/m 22,2 km/h (4 Bft) SW 225 4,8 C 4,9 C 48,1 km/h (6 Bft) 100 %
21.02.2020 18:30 8,2 C 79 % 1020,7 hPa 0,0 l/m 18,5 km/h (3 Bft) SW 225 4,8 C 5,3 C 38,9 km/h (6 Bft) 100 %
21.02.2020 18:20 8,2 C 78 % 1020,7 hPa 0,0 l/m 20,4 km/h (4 Bft) SW 225 4,6 C 5,1 C 40,7 km/h (6 Bft) 100 %
21.02.2020 18:10 8,4 C 77 % 1020,7 hPa 0,0 l/m 20,4 km/h (4 Bft) SW 225 4,6 C 5,3 C 37,0 km/h (5 Bft) 100 %
21.02.2020 18:00 8,4 C 77 % 1020,7 hPa 0,0 l/m 18,5 km/h (3 Bft) SW 225 4,6 C 5,5 C 38,9 km/h (6 Bft) 100 %
21.02.2020 17:50 8,3 C 77 % 1020,6 hPa 0,0 l/m 20,4 km/h (4 Bft) SW 225 4,5 C 5,2 C 35,2 km/h (5 Bft) 100 %
21.02.2020 17:40 8,3 C 78 % 1020,8 hPa 0,0 l/m 16,7 km/h (3 Bft) SW 225 4,7 C 5,6 C 37,0 km/h (5 Bft) 100 %
21.02.2020 17:30 8,3 C 78 % 1020,7 hPa 0,0 l/m 22,2 km/h (4 Bft) S-SW 202 4,7 C 5,0 C 38,9 km/h (6 Bft) 100 %
21.02.2020 17:20 8,2 C 78 % 1020,7 hPa 0,0 l/m 20,4 km/h (4 Bft) SW 225 4,6 C 5,1 C 38,9 km/h (6 Bft) 100 %
21.02.2020 17:10 8,2 C 78 % 1020,8 hPa 0,0 l/m 20,4 km/h (4 Bft) SW 225 4,6 C 5,1 C 38,9 km/h (6 Bft) 100 %
21.02.2020 17:00 8,1 C 79 % 1020,7 hPa 0,0 l/m 18,5 km/h (3 Bft) SW 225 4,7 C 5,1 C 38,9 km/h (6 Bft) 100 %
21.02.2020 16:50 8,1 C 79 % 1020,8 hPa 0,0 l/m 16,7 km/h (3 Bft) SW 225 4,7 C 5,4 C 35,2 km/h (5 Bft) 100 %
21.02.2020 16:40 8,1 C 79 % 1020,9 hPa 0,0 l/m 18,5 km/h (3 Bft) SW 225 4,7 C 5,1 C 37,0 km/h (5 Bft) 100 %
21.02.2020 16:30 8,0 C 79 % 1021,1 hPa 0,0 l/m 18,5 km/h (3 Bft) SW 225 4,6 C 5,0 C 33,3 km/h (5 Bft) 100 %
21.02.2020 16:20 8,0 C 80 % 1021,1 hPa 0,0 l/m 16,7 km/h (3 Bft) SW 225 4,8 C 5,2 C 38,9 km/h (6 Bft) 100 %
21.02.2020 16:10 8,1 C 79 % 1021,2 hPa 0,0 l/m 20,4 km/h (4 Bft) SW 225 4,7 C 4,9 C 38,9 km/h (6 Bft) 100 %
21.02.2020 16:00 8,2 C 78 % 1021,4 hPa 0,0 l/m 22,2 km/h (4 Bft) SW 225 4,6 C 4,9 C 42,6 km/h (6 Bft) 100 %
21.02.2020 15:50 8,2 C 78 % 1021,4 hPa 0,0 l/m 14,8 km/h (3 Bft) SW 225 4,6 C 5,7 C 29,6 km/h (5 Bft) 100 %
21.02.2020 15:40 8,3 C 78 % 1021,4 hPa 0,0 l/m 18,5 km/h (3 Bft) SW 225 4,7 C 5,4 C 37,0 km/h (5 Bft) 100 %
21.02.2020 15:30 8,3 C 78 % 1021,4 hPa 0,0 l/m 18,5 km/h (3 Bft) SW 225 4,7 C 5,4 C 37,0 km/h (5 Bft) 100 %
21.02.2020 15:20 8,3 C 77 % 1021,5 hPa 0,0 l/m 22,2 km/h (4 Bft) SW 225 4,5 C 5,0 C 40,7 km/h (6 Bft) 100 %
21.02.2020 15:10 8,3 C 77 % 1021,5 hPa 0,0 l/m 24,1 km/h (4 Bft) SW 225 4,5 C 4,8 C 48,1 km/h (6 Bft) 100 %
21.02.2020 15:00 8,4 C 77 % 1021,5 hPa 0,0 l/m 22,2 km/h (4 Bft) SW 225 4,6 C 5,1 C 46,3 km/h (6 Bft) 100 %
21.02.2020 14:50 8,4 C 77 % 1021,3 hPa 0,0 l/m 22,2 km/h (4 Bft) SW 225 4,6 C 5,1 C 44,4 km/h (6 Bft) 100 %
21.02.2020 14:40 8,6 C 76 % 1021,3 hPa 0,0 l/m 22,2 km/h (4 Bft) SW 225 4,6 C 5,4 C 48,1 km/h (6 Bft) 100 %
21.02.2020 14:30 8,6 C 76 % 1021,4 hPa 0,0 l/m 20,4 km/h (4 Bft) SW 225 4,6 C 5,6 C 37,0 km/h (5 Bft) 100 %
21.02.2020 14:20 8,6 C 76 % 1021,5 hPa 0,0 l/m 18,5 km/h (3 Bft) SW 225 4,6 C 5,8 C 37,0 km/h (5 Bft) 100 %
21.02.2020 14:10 8,7 C 75 % 1021,6 hPa 0,0 l/m 14,8 km/h (3 Bft) SW 225 4,5 C 6,3 C 37,0 km/h (5 Bft) 100 %
21.02.2020 14:00 8,8 C 74 % 1021,6 hPa 0,0 l/m 18,5 km/h (3 Bft) SW 225 4,4 C 6,0 C 40,7 km/h (6 Bft) 100 %
21.02.2020 13:50 8,8 C 74 % 1021,6 hPa 0,0 l/m 18,5 km/h (3 Bft) SW 225 4,4 C 6,0 C 40,7 km/h (6 Bft) 100 %
21.02.2020 13:40 8,7 C 75 % 1021,8 hPa 0,0 l/m 18,5 km/h (3 Bft) SW 225 4,5 C 5,9 C 33,3 km/h (5 Bft) 100 %
21.02.2020 13:30 8,6 C 75 % 1021,8 hPa 0,0 l/m 18,5 km/h (3 Bft) SW 225 4,4 C 5,8 C 35,2 km/h (5 Bft) 100 %
21.02.2020 13:20 8,6 C 75 % 1021,8 hPa 0,0 l/m 18,5 km/h (3 Bft) SW 225 4,4 C 5,8 C 33,3 km/h (5 Bft) 100 %
21.02.2020 13:10 8,6 C 75 % 1022,0 hPa 0,0 l/m 16,7 km/h (3 Bft) SW 225 4,4 C 6,0 C 42,6 km/h (6 Bft) 100 %
21.02.2020 13:00 8,5 C 76 % 1022,0 hPa 0,0 l/m 14,8 km/h (3 Bft) SW 225 4,5 C 6,1 C 37,0 km/h (5 Bft) 100 %
21.02.2020 12:50 8,4 C 76 % 1022,0 hPa 0,0 l/m 20,4 km/h (4 Bft) SW 225 4,4 C 5,3 C 46,3 km/h (6 Bft) 100 %
21.02.2020 12:40 8,2 C 77 % 1021,9 hPa 0,0 l/m 18,5 km/h (3 Bft) SW 225 4,4 C 5,3 C 38,9 km/h (6 Bft) 100 %
21.02.2020 12:30 7,7 C 79 % 1021,9 hPa 0,0 l/m 18,3 km/h (3 Bft) W-SW 240 4,3 C 4,7 C 44,8 km/h (6 Bft) 100 %
21.02.2020 12:20 7,6 C 79 % 1021,9 hPa 0,0 l/m 18,9 km/h (3 Bft) SW 215 4,2 C 4,5 C 40,9 km/h (6 Bft) 99 %
21.02.2020 12:10 7,4 C 80 % 1022,0 hPa 0,0 l/m 18,1 km/h (3 Bft) W 266 4,2 C 4,3 C 40,9 km/h (6 Bft) 99 %
21.02.2020 12:00 7,2 C 81 % 1021,9 hPa 0,0 l/m 23,4 km/h (4 Bft) S 190 4,2 C 3,5 C 42,8 km/h (6 Bft) 99 %
21.02.2020 11:50 7,3 C 81 % 1022,0 hPa 0,0 l/m 18,8 km/h (3 Bft) SW 225 4,3 C 4,1 C 40,9 km/h (6 Bft) 99 %
21.02.2020 11:40 7,3 C 81 % 1022,1 hPa 0,0 l/m 18,3 km/h (3 Bft) W-SW 250 4,3 C 4,2 C 40,9 km/h (6 Bft) 100 %
21.02.2020 11:30 7,1 C 82 % 1022,1 hPa 0,0 l/m 15,0 km/h (3 Bft) SW 236 4,2 C 4,3 C 31,2 km/h (5 Bft) 99 %
21.02.2020 11:20 6,8 C 83 % 1022,1 hPa 0,0 l/m 18,1 km/h (3 Bft) S-SW 209 4,1 C 3,6 C 35,1 km/h (5 Bft) 100 %
21.02.2020 11:10 6,6 C 84 % 1022,2 hPa 0,0 l/m 18,0 km/h (3 Bft) SW 236 4,1 C 3,3 C 38,9 km/h (6 Bft) 100 %
21.02.2020 11:00 6,4 C 84 % 1022,1 hPa 0,0 l/m 15,9 km/h (3 Bft) W-SW 241 3,9 C 3,3 C 33,1 km/h (5 Bft) 100 %
21.02.2020 10:50 6,4 C 83 % 1022,0 hPa 0,0 l/m 16,0 km/h (3 Bft) SW 232 3,7 C 3,3 C 31,2 km/h (5 Bft) 100 %
21.02.2020 10:40 6,4 C 83 % 1022,0 hPa 0,0 l/m 16,5 km/h (3 Bft) SW 218 3,7 C 3,3 C 40,9 km/h (6 Bft) 99 %
21.02.2020 10:30 6,3 C 83 % 1021,9 hPa 0,0 l/m 19,5 km/h (3 Bft) SW 227 3,6 C 2,8 C 37,0 km/h (5 Bft) 100 %
21.02.2020 10:20 6,1 C 84 % 1021,9 hPa 0,0 l/m 14,6 km/h (3 Bft) SW 226 3,6 C 3,2 C 35,1 km/h (5 Bft) 99 %
21.02.2020 10:10 5,8 C 84 % 1021,9 hPa 0,0 l/m 15,2 km/h (3 Bft) SW 236 3,3 C 2,7 C 35,1 km/h (5 Bft) 99 %
21.02.2020 10:00 5,7 C 84 % 1021,8 hPa 0,0 l/m 16,3 km/h (3 Bft) SW 217 3,2 C 2,4 C 33,1 km/h (5 Bft) 99 %
21.02.2020 09:50 5,5 C 85 % 1021,7 hPa 0,0 l/m 15,4 km/h (3 Bft) S 184 3,2 C 2,3 C 31,2 km/h (5 Bft) 100 %
21.02.2020 09:40 5,2 C 85 % 1021,7 hPa 0,0 l/m 15,5 km/h (3 Bft) S-SW 209 2,9 C 1,9 C 27,3 km/h (4 Bft) 100 %
21.02.2020 09:30 5,2 C 85 % 1021,5 hPa 0,0 l/m 14,7 km/h (3 Bft) W-SW 242 2,9 C 2,0 C 31,2 km/h (5 Bft) 99 %
21.02.2020 09:20 5,1 C 86 % 1021,5 hPa 0,0 l/m 15,0 km/h (3 Bft) S 174 3,0 C 1,9 C 27,3 km/h (4 Bft) 99 %
21.02.2020 09:10 4,8 C 86 % 1021,4 hPa 0,0 l/m 16,0 km/h (3 Bft) SW 232 2,7 C 1,4 C 29,2 km/h (5 Bft) 99 %
21.02.2020 09:00 4,7 C 86 % 1021,3 hPa 0,0 l/m 14,5 km/h (3 Bft) SW 232 2,6 C 1,5 C 33,1 km/h (5 Bft) 98 %
21.02.2020 08:50 4,7 C 86 % 1021,2 hPa 0,0 l/m 15,3 km/h (3 Bft) SW 227 2,6 C 1,3 C 29,2 km/h (5 Bft) 99 %
21.02.2020 08:40 4,8 C 85 % 1021,0 hPa 0,0 l/m 15,7 km/h (3 Bft) SW 231 2,5 C 1,4 C 31,2 km/h (5 Bft) 99 %
21.02.2020 08:30 4,9 C 85 % 1020,8 hPa 0,0 l/m 17,2 km/h (3 Bft) SW 215 2,6 C 1,3 C 48,7 km/h (6 Bft) 99 %
21.02.2020 08:20 5,2 C 85 % 1020,7 hPa 0,0 l/m 14,8 km/h (3 Bft) W-SW 244 2,9 C 2,0 C 29,2 km/h (5 Bft) 100 %
21.02.2020 08:10 5,3 C 85 % 1020,4 hPa 0,0 l/m 14,3 km/h (3 Bft) SW 219 3,0 C 2,2 C 31,2 km/h (5 Bft) 99 %
21.02.2020 08:00 5,4 C 85 % 1020,3 hPa 0,0 l/m 14,1 km/h (3 Bft) W 275 3,1 C 2,4 C 29,2 km/h (5 Bft) 100 %
21.02.2020 07:50 5,4 C 85 % 1020,1 hPa 0,0 l/m 14,6 km/h (3 Bft) W-SW 243 3,1 C 2,3 C 33,1 km/h (5 Bft) 98 %
21.02.2020 07:40 5,4 C 85 % 1019,9 hPa 0,0 l/m 12,9 km/h (3 Bft) SW 227 3,1 C 2,6 C 27,3 km/h (4 Bft) 99 %
21.02.2020 07:30 5,5 C 85 % 1019,8 hPa 0,0 l/m 12,4 km/h (3 Bft) SW 221 3,2 C 2,8 C 31,2 km/h (5 Bft) 100 %
21.02.2020 07:20 5,5 C 84 % 1019,7 hPa 0,0 l/m 11,9 km/h (2 Bft) S-SW 199 3,0 C 2,9 C 27,3 km/h (4 Bft) 99 %
21.02.2020 07:10 5,6 C 84 % 1019,6 hPa 0,0 l/m 10,2 km/h (2 Bft) SW 216 3,1 C 3,3 C 23,4 km/h (4 Bft) 100 %
21.02.2020 07:00 5,7 C 84 % 1019,4 hPa 0,0 l/m 9,8 km/h (2 Bft) W-NW 298 3,2 C 3,5 C 27,3 km/h (4 Bft) 99 %
21.02.2020 06:50 5,7 C 83 % 1019,4 hPa 0,0 l/m 9,5 km/h (2 Bft) SW 215 3,0 C 3,6 C 31,2 km/h (5 Bft) 100 %
21.02.2020 06:40 5,7 C 83 % 1019,3 hPa 0,0 l/m 11,6 km/h (2 Bft) SW 236 3,0 C 3,2 C 31,2 km/h (5 Bft) 100 %
21.02.2020 06:30 5,7 C 83 % 1019,1 hPa 0,0 l/m 11,5 km/h (2 Bft) W 277 3,0 C 3,2 C 25,3 km/h (4 Bft) 99 %
21.02.2020 06:20 5,7 C 83 % 1019,1 hPa 0,0 l/m 11,7 km/h (2 Bft) SW 225 3,0 C 3,2 C 29,2 km/h (5 Bft) 99 %
21.02.2020 06:10 5,7 C 83 % 1018,9 hPa 0,0 l/m 11,8 km/h (2 Bft) W-SW 255 3,0 C 3,1 C 38,9 km/h (6 Bft) 100 %
21.02.2020 06:00 5,7 C 83 % 1018,8 hPa 0,0 l/m 9,7 km/h (2 Bft) W 270 3,0 C 3,6 C 27,3 km/h (4 Bft) 99 %
21.02.2020 05:50 5,7 C 83 % 1018,7 hPa 0,0 l/m 11,1 km/h (2 Bft) S 182 3,0 C 3,3 C 27,3 km/h (4 Bft) 100 %
21.02.2020 05:40 5,7 C 83 % 1018,5 hPa 0,0 l/m 12,5 km/h (3 Bft) S 181 3,0 C 3,0 C 29,2 km/h (5 Bft) 99 %
21.02.2020 05:30 5,6 C 84 % 1018,4 hPa 0,0 l/m 10,7 km/h (2 Bft) W-SW 254 3,1 C 3,2 C 27,3 km/h (4 Bft) 100 %
21.02.2020 05:20 5,6 C 84 % 1018,2 hPa 0,0 l/m 11,4 km/h (2 Bft) W-SW 246 3,1 C 3,1 C 29,2 km/h (5 Bft) 100 %
21.02.2020 05:10 5,5 C 84 % 1018,0 hPa 0,0 l/m 9,8 km/h (2 Bft) W 269 3,0 C 3,3 C 23,4 km/h (4 Bft) 99 %
21.02.2020 05:00 5,5 C 84 % 1017,8 hPa 0,0 l/m 11,2 km/h (2 Bft) W-SW 251 3,0 C 3,0 C 25,3 km/h (4 Bft) 99 %
21.02.2020 04:50 5,6 C 84 % 1017,6 hPa 0,0 l/m 10,9 km/h (2 Bft) SW 230 3,1 C 3,2 C 25,3 km/h (4 Bft) 98 %
21.02.2020 04:40 5,6 C 84 % 1017,5 hPa 0,0 l/m 11,7 km/h (2 Bft) S 171 3,1 C 3,0 C 23,4 km/h (4 Bft) 100 %
21.02.2020 04:30 5,6 C 83 % 1017,4 hPa 0,0 l/m 10,6 km/h (2 Bft) W 263 2,9 C 3,3 C 27,3 km/h (4 Bft) 100 %
21.02.2020 04:20 5,6 C 83 % 1017,0 hPa 0,0 l/m 9,8 km/h (2 Bft) W-NW 293 2,9 C 3,4 C 27,3 km/h (4 Bft) 98 %
21.02.2020 04:10 5,6 C 83 % 1016,9 hPa 0,0 l/m 13,4 km/h (3 Bft) SW 227 2,9 C 2,7 C 25,3 km/h (4 Bft) 100 %
21.02.2020 04:00 5,5 C 83 % 1016,7 hPa 0,0 l/m 10,3 km/h (2 Bft) NW 307 2,8 C 3,2 C 25,3 km/h (4 Bft) 98 %
21.02.2020 03:50 5,5 C 83 % 1016,5 hPa 0,0 l/m 11,5 km/h (2 Bft) NW 309 2,8 C 3,0 C 31,2 km/h (5 Bft) 100 %
21.02.2020 03:40 5,4 C 83 % 1016,3 hPa 0,0 l/m 9,9 km/h (2 Bft) SW 222 2,7 C 3,2 C 25,3 km/h (4 Bft) 100 %
21.02.2020 03:30 5,4 C 83 % 1016,3 hPa 0,0 l/m 12,0 km/h (2 Bft) W 273 2,7 C 2,7 C 29,2 km/h (5 Bft) 99 %
21.02.2020 03:20 5,4 C 83 % 1016,0 hPa 0,0 l/m 11,9 km/h (2 Bft) SW 234 2,7 C 2,8 C 27,3 km/h (4 Bft) 100 %
21.02.2020 03:10 5,4 C 83 % 1015,8 hPa 0,0 l/m 9,4 km/h (2 Bft) W-SW 254 2,7 C 3,3 C 27,3 km/h (4 Bft) 100 %
21.02.2020 03:00 5,3 C 83 % 1015,7 hPa 0,0 l/m 12,4 km/h (3 Bft) W-SW 241 2,7 C 2,5 C 29,2 km/h (5 Bft) 99 %
21.02.2020 02:50 5,2 C 84 % 1015,5 hPa 0,0 l/m 11,7 km/h (2 Bft) W-NW 293 2,7 C 2,6 C 31,2 km/h (5 Bft) 99 %
21.02.2020 02:40 5,2 C 85 % 1015,3 hPa 0,0 l/m 11,9 km/h (2 Bft) W 265 2,9 C 2,5 C 27,3 km/h (4 Bft) 99 %
21.02.2020 02:30 5,1 C 85 % 1015,1 hPa 0,0 l/m 10,8 km/h (2 Bft) W-NW 287 2,8 C 2,6 C 27,3 km/h (4 Bft) 100 %
21.02.2020 02:20 5,0 C 85 % 1015,0 hPa 0,0 l/m 9,6 km/h (2 Bft) W-SW 246 2,7 C 2,7 C 21,4 km/h (4 Bft) 99 %
21.02.2020 02:10 4,9 C 85 % 1014,8 hPa 0,0 l/m 11,5 km/h (2 Bft) SW 231 2,6 C 2,2 C 29,2 km/h (5 Bft) 99 %
21.02.2020 02:00 4,8 C 86 % 1014,4 hPa 0,0 l/m 8,6 km/h (2 Bft) W-SW 240 2,7 C 2,7 C 23,4 km/h (4 Bft) 100 %
21.02.2020 01:50 4,7 C 87 % 1014,2 hPa 0,0 l/m 8,6 km/h (2 Bft) W-NW 286 2,7 C 2,6 C 21,4 km/h (4 Bft) 99 %
21.02.2020 01:40 4,7 C 86 % 1013,9 hPa 0,0 l/m 10,3 km/h (2 Bft) NW 319 2,6 C 2,2 C 29,2 km/h (5 Bft) 98 %
21.02.2020 01:30 4,6 C 87 % 1013,7 hPa 0,0 l/m 10,0 km/h (2 Bft) W 261 2,6 C 2,2 C 25,3 km/h (4 Bft) 99 %
21.02.2020 01:20 4,7 C 88 % 1013,3 hPa 0,0 l/m 9,6 km/h (2 Bft) NW 325 2,9 C 2,4 C 23,4 km/h (4 Bft) 99 %
21.02.2020 01:10 4,6 C 88 % 1013,3 hPa 0,0 l/m 11,8 km/h (2 Bft) SW 227 2,8 C 1,8 C 33,1 km/h (5 Bft) 99 %
21.02.2020 01:00 4,7 C 88 % 1013,1 hPa 0,0 l/m 12,5 km/h (3 Bft) SW 214 2,9 C 1,8 C 29,2 km/h (5 Bft) 100 %
21.02.2020 00:50 4,7 C 89 % 1012,8 hPa 0,0 l/m 13,9 km/h (3 Bft) S 169 3,0 C 1,6 C 29,2 km/h (5 Bft) 99 %
21.02.2020 00:40 4,7 C 89 % 1012,6 hPa 0,0 l/m 11,3 km/h (2 Bft) W-NW 285 3,0 C 2,0 C 37,0 km/h (5 Bft) 99 %
21.02.2020 00:30 4,6 C 90 % 1012,2 hPa 0,0 l/m 10,9 km/h (2 Bft) W-NW 300 3,1 C 2,0 C 27,3 km/h (4 Bft) 100 %
21.02.2020 00:20 4,7 C 90 % 1011,9 hPa 0,0 l/m 10,4 km/h (2 Bft) W 265 3,2 C 2,2 C 25,3 km/h (4 Bft) 100 %
21.02.2020 00:10 4,7 C 90 % 1011,7 hPa 0,0 l/m 9,0 km/h (2 Bft) SW 221 3,2 C 2,5 C 21,4 km/h (4 Bft) 99 %
21.02.2020 00:00 4,7 C 91 % 1011,6 hPa 0,0 l/m 8,5 km/h (2 Bft) SW 221 3,4 C 2,7 C 25,3 km/h (4 Bft) 100 %
20.02.2020 23:50 4,8 C 92 % 1011,3 hPa 0,0 l/m 8,4 km/h (2 Bft) W 263 3,6 C 2,8 C 23,4 km/h (4 Bft) 100 %
20.02.2020 23:40 4,8 C 92 % 1011,1 hPa 0,0 l/m 11,8 km/h (2 Bft) SW 234 3,6 C 2,1 C 27,3 km/h (4 Bft) 98 %
20.02.2020 23:30 4,8 C 92 % 1010,9 hPa 0,0 l/m 8,2 km/h (2 Bft) W-NW 292 3,6 C 2,8 C 27,3 km/h (4 Bft) 100 %
20.02.2020 23:20 4,8 C 92 % 1010,5 hPa 0,0 l/m 7,5 km/h (2 Bft) N-NW 342 3,6 C 3,0 C 21,4 km/h (4 Bft) 100 %
20.02.2020 23:10 4,9 C 92 % 1010,3 hPa 0,2 l/m 10,3 km/h (2 Bft) W-NW 292 3,7 C 2,5 C 23,4 km/h (4 Bft) 98 %
20.02.2020 23:00 5,2 C 92 % 1010,3 hPa 0,2 l/m 12,3 km/h (3 Bft) W-NW 292 4,0 C 2,4 C 33,1 km/h (5 Bft) 100 %
20.02.2020 22:50 5,5 C 92 % 1009,8 hPa 0,6 l/m 7,8 km/h (2 Bft) W 262 4,3 C 3,8 C 21,4 km/h (4 Bft) 99 %
20.02.2020 22:40 5,4 C 92 % 1009,0 hPa 0,0 l/m 9,2 km/h (2 Bft) W 275 4,2 C 3,3 C 31,2 km/h (5 Bft) 99 %
20.02.2020 22:30 5,4 C 92 % 1008,9 hPa 0,0 l/m 9,6 km/h (2 Bft) SW 230 4,2 C 3,2 C 23,4 km/h (4 Bft) 100 %
20.02.2020 22:20 5,4 C 92 % 1008,5 hPa 0,0 l/m 8,0 km/h (2 Bft) W-NW 298 4,2 C 3,6 C 19,5 km/h (3 Bft) 99 %
20.02.2020 22:10 5,4 C 92 % 1008,4 hPa 0,0 l/m 9,0 km/h (2 Bft) W 271 4,2 C 3,4 C 27,3 km/h (4 Bft) 99 %
20.02.2020 22:00 5,5 C 92 % 1007,9 hPa 0,0 l/m 7,8 km/h (2 Bft) NW 306 4,3 C 3,8 C 27,3 km/h (4 Bft) 100 %
_ Min-Zeit 00:30 13:50 22:00 - 23:20 - - 08:40 08:30 19:20 23:40
Minimum _ 4,6 C 74 % 1007,9 hPa - 7,5 km/h (2 Bft) - - 2,5 C 1,3 C 18,5 km/h (3 Bft) 98 %
_ Max-Zeit 13:50 22:00 11:10 22:50 15:10 - - 20:30 14:10 08:30 23:30
Maximum _ 8,8 C 92 % 1022,2 hPa 0,6 l/m 24,1 km/h
SW (4 Bft)
- - 5,6 C 6,3 C 48,7 km/h
SW (6 Bft)
100 %
Durchschnitt _ 6,5 C 84 % 1017,8 hPa #1,0 l/m 14,6 km/h (3 Bft) SW - 3,9 C 3,8 C 32,6 km/h (5 Bft) 99 %